Impacts TAF Board
For situational awareness. Not to be used for flight planning purposes.
IDs:

KDCA - Washington/National, VA, US

Issued at 0524 UTC 03 Jul 2022
Updated at 0536 UTC 03 Jul 2022
Potential Impact None Slight Moderate High
Time0519Z 03/06Z 03/07Z 03/08Z 03/09Z 03/10Z 03/11Z 03/12Z 03/13Z 03/14Z 03/15Z 03/16Z 03/17Z 03/18Z>>
Type OBS PRVL PRVL PRVL PRVL PRVL PRVL PRVL PRVL PRVL PRVL PRVL PRVL PRVL
VIS 10 >6 >6 >6 >6 >6 >6 >6 >6 >6 >6 >6 >6 >6
CIG 28 50 50 50 50 50 130 130 80 80 80 80 80 80
Cover OVC BKN BKN BKN BKN BKN BKN BKN BKN BKN BKN BKN BKN BKN
FltCat MVFR VFR VFR VFR VFR VFR VFR VFR VFR VFR VFR VFR VFR VFR
WX VCTS VCSH VCSH VCSH VCSH VCSH -- -- -- -- -- -- -- --
WDir 50 VRB VRB VRB VRB VRB 340 340 360 360 360 360 360 360
WSpd 7 3 3 3 3 3 4 4 8 8 8 8 8 8
WGst -- -- -- -- -- -- -- -- 16 16 16 16 16 16
WSHgt -- -- -- -- -- -- -- -- -- -- -- -- -- --
WSDir -- -- -- -- -- -- -- -- -- -- -- -- -- --
WSSpd -- -- -- -- -- -- -- -- -- -- -- -- -- --
Raw TAF
KDCA 030524Z 0306/0412 VRB03KT P6SM VCSH SCT025 BKN050 BKN130
  FM031100 34004KT P6SM SCT050 BKN130
  FM031300 36008G16KT P6SM SCT050 BKN080
  FM032000 33008G16KT P6SM FEW050 SCT250
  FM040100 VRB03KT P6SM FEW250


Raw METAR
KDCA 030519Z 05007KT 10SM VCTS BKN028 OVC035 24/21 A2998 RMK AO2 LTG DSNT NE AND E OCNL LTGICCC DSNT E CB DSNT E MOV E T02440206 $
KDCA 030513Z 04006KT 10SM BKN028 BKN140 OVC250 24/21 A2998 RMK AO2 LTG DSNT NE AND E OCNL LTGICCC DSNT E CB DSNT E MOV E T02440206 $
KDCA 030458Z 03008KT 10SM VCTS FEW011 SCT030 BKN140 BKN250 24/21 A2998 RMK AO2 LTG DSNT NE AND E OCNL LTGICCC DSNT E CB DSNT E MOV E T02390206 $
KDCA 030452Z 04009KT 10SM FEW030CB BKN140 BKN250 24/21 A2997 RMK AO2 LTG DSNT NE AND E SLP149 OCNL LTGICCC VC NE-E CB VC NE-E MOV E T02390206 403170239 $
KDCA 030447Z 05010KT 10SM SCT030CB BKN150 OVC250 24/21 A2997 RMK AO2 LTG DSNT NE AND E OCNL LTGICCC VC E CB VC E MOV E $
KDCA 030421Z 36008KT 10SM TS FEW022 BKN030 OVC065CB 25/21 A2998 RMK AO2 LTG DSNT N AND NE OCNL LTGICCC NE-E TS NE-E MOV E T02500211 $
KDCA 030401Z 36004KT 10SM VCTS SCT060CB BKN150 OVC250 24/21 A2997 RMK AO2 LTG DSNT NW-E OCNL LTGICCC VC N-NE CB VC N-NE MOV E T02440211 $
KDCA 030352Z 01005KT 10SM SCT065CB BKN150 OVC250 24/21 A2997 RMK AO2 LTG DSNT ALQDS SLP147 FRQ LTGICCC VC NW-NE CB VC NW-NE MOV E T02440206 $
KDCA 030335Z 00000KT 10SM SCT070 BKN150 OVC250 24/21 A2996 RMK AO2 LTG DSNT W-NE FRQ LTGICCC DSNT W-N CB DSNT W-N MOV E T02440211 $
KDCA 030256Z 02008KT 10SM FEW070 SCT150 BKN250 24/21 A2997 RMK AO2 LTG DSNT N AND NW OCNL LTGICCC DSNT N AND E CB DSNT N AND E MOV E T02440211 $
KDCA 030252Z 02007KT 10SM VCTS FEW090 SCT150 BKN250 24/21 A2997 RMK AO2 LTG DSNT N AND NW TSE0156E39 SLP148 OCNL LTGICCC DSNT E AND NW-N CB DSNT E AND NW-N MOV E 60000 T02440211 51014 $
KDCA 030245Z 04006KT 10SM VCTS FEW090 SCT150 BKN250 24/21 A2996 RMK AO2 LTG DSNT E TSE0156E39 OCNL LTGIC DSNT E AND NW CB DSNT E AND NW MOV E T02440206 $

METAR Board
Radar Display
Forecast Discussion
For situational awareness. Not to be used for flight planning purposes.